ADDS METAR Data INFO
IDs: Format: Raw Decoded Include TAF

Data at: 1130 UTC 29 May 2017

METAR for:PADQ (Kodiak Arpt, AK, US)
Text:PADQ 291053Z 00000KT 10SM BKN085 04/02 A2983 RMK AO2 SLP099 T00440022
Temperature: 4.4°C ( 40°F)
Dewpoint: 2.2°C ( 36°F) [RH = 86%]
Pressure (altimeter):29.83 inches Hg (1010.2 mb) [Sea level pressure: 1009.9 mb]
Winds:calm
Visibility:10 or more sm (16+ km)
Ceiling:8500 feet AGL
Clouds: broken clouds at 8500 feet AGL
Text:PADQ 290953Z 12003KT 10SM OVC085 06/03 A2981 RMK AO2 SLP095 T00560028
Temperature: 5.6°C ( 42°F)
Dewpoint: 2.8°C ( 37°F) [RH = 82%]
Pressure (altimeter):29.81 inches Hg (1009.6 mb) [Sea level pressure: 1009.5 mb]
Winds:from the ESE (120 degrees) at 3 MPH (3 knots; 1.5 m/s)
Visibility:10 or more sm (16+ km)
Ceiling:8500 feet AGL
Clouds: overcast cloud deck at 8500 feet AGL
Text:PADQ 290853Z 16005KT 10SM OVC085 06/02 A2981 RMK AO2 SLP094 T00610022 401000050 51010
Temperature: 6.1°C ( 43°F)
Dewpoint: 2.2°C ( 36°F) [RH = 76%]
Pressure (altimeter):29.81 inches Hg (1009.6 mb) [Sea level pressure: 1009.4 mb]
Winds:from the SSE (160 degrees) at 6 MPH (5 knots; 2.6 m/s)
Visibility:10 or more sm (16+ km)
Ceiling:8500 feet AGL
Clouds: overcast cloud deck at 8500 feet AGL
Text:PADQ 290753Z 20004KT 10SM BKN085 06/02 A2980 RMK AO2 SLP091 T00610017
Temperature: 6.1°C ( 43°F)
Dewpoint: 1.7°C ( 35°F) [RH = 73%]
Pressure (altimeter):29.80 inches Hg (1009.2 mb) [Sea level pressure: 1009.1 mb]
Winds:from the SSW (200 degrees) at 5 MPH (4 knots; 2.1 m/s)
Visibility:10 or more sm (16+ km)
Ceiling:8500 feet AGL
Clouds: broken clouds at 8500 feet AGL
Text:PADQ 290653Z 16008KT 10SM BKN080 07/02 A2979 RMK AO2 SLP088 T00670022
Temperature: 6.7°C ( 44°F)
Dewpoint: 2.2°C ( 36°F) [RH = 73%]
Pressure (altimeter):29.79 inches Hg (1008.9 mb) [Sea level pressure: 1008.8 mb]
Winds:from the SSE (160 degrees) at 9 MPH (8 knots; 4.1 m/s)
Visibility:10 or more sm (16+ km)
Ceiling:8000 feet AGL
Clouds: broken clouds at 8000 feet AGL
Text:PADQ 290553Z 16005KT 10SM FEW090 07/02 A2978 RMK AO2 SLP084 T00720022 10100 20072 53007
Temperature: 7.2°C ( 45°F)
Dewpoint: 2.2°C ( 36°F) [RH = 70%]
Pressure (altimeter):29.78 inches Hg (1008.5 mb) [Sea level pressure: 1008.4 mb]
Winds:from the SSE (160 degrees) at 6 MPH (5 knots; 2.6 m/s)
Visibility:10 or more sm (16+ km)
Ceiling:at least 12,000 feet AGL
Clouds: few clouds at 9000 feet AGL

TAF for:PADQ (Kodiak Arpt, AK, US) issued at 1120 UTC 29 May 2017
Text:PADQ 291120Z 2912/3012 VRB03KT P6SM BKN080
Forecast period:1200 to 1900 UTC 29 May 2017
Forecast type:FROM: standard forecast or significant change
Winds:variable direction winds at 3 MPH (3 knots; 1.5 m/s)
Visibility:6 or more sm (10+ km)
Ceiling:8000 feet AGL
Clouds: broken clouds at 8000 feet AGL
Text:FM291900 10007KT P6SM SCT080
Forecast period:1900 UTC 29 May 2017 to 0900 UTC 30 May 2017
Forecast type:FROM: standard forecast or significant change
Winds:from the E (100 degrees) at 8 MPH (7 knots; 3.6 m/s)
Visibility:6 or more sm (10+ km)
Ceiling:at least 12,000 feet AGL
Clouds: scattered clouds at 8000 feet AGL
Text:FM300900 03006KT P6SM BKN030
Forecast period:0900 to 1200 UTC 30 May 2017
Forecast type:FROM: standard forecast or significant change
Winds:from the NNE (30 degrees) at 7 MPH (6 knots; 3.1 m/s)
Visibility:6 or more sm (10+ km)
Ceiling:3000 feet AGL
Clouds: broken clouds at 3000 feet AGL


Page loaded:  11:30 UTC  |   04:30 AM Pacific  |   05:30 AM Mountain  |   06:30 AM Central  |   07:30 AM Eastern

 

ADVISORIES

FORECASTS

FORECASTS

OBSERVATIONS

USER TOOLS

ABOUT US